sensor_id;sensor_type;location;lat;lon;timestamp;pressure;altitude;pressure_sealevel;temperature;humidity
75617;BME280;64200;55.426;37.758;2022-12-08T00:02:22;99846.06;;;-9.60;69.73
75617;BME280;64200;55.426;37.758;2022-12-08T00:07:22;99844.63;;;-9.58;70.22
75617;BME280;64200;55.426;37.758;2022-12-08T00:12:41;99836.13;;;-9.47;70.33
75617;BME280;64200;55.426;37.758;2022-12-08T00:17:42;99820.72;;;-9.47;69.29
75617;BME280;64200;55.426;37.758;2022-12-08T00:22:42;99817.91;;;-9.59;70.54
75617;BME280;64200;55.426;37.758;2022-12-08T00:27:43;99808.53;;;-9.53;69.55
75617;BME280;64200;55.426;37.758;2022-12-08T00:32:43;99806.88;;;-9.66;69.77
75617;BME280;64200;55.426;37.758;2022-12-08T00:37:44;99802.75;;;-9.73;70.31
75617;BME280;64200;55.426;37.758;2022-12-08T00:42:44;99807.94;;;-9.59;69.84
75617;BME280;64200;55.426;37.758;2022-12-08T00:47:45;99796.66;;;-9.61;70.21
75617;BME280;64200;55.426;37.758;2022-12-08T00:52:46;99804.28;;;-9.63;69.74
75617;BME280;64200;55.426;37.758;2022-12-08T00:57:46;99832.50;;;-9.51;69.91
75617;BME280;64200;55.426;37.758;2022-12-08T01:02:47;99814.38;;;-9.51;69.69
75617;BME280;64200;55.426;37.758;2022-12-08T01:07:47;99837.44;;;-9.54;70.37
75617;BME280;64200;55.426;37.758;2022-12-08T01:12:48;99816.75;;;-9.49;70.46
75617;BME280;64200;55.426;37.758;2022-12-08T01:17:49;99835.66;;;-9.49;69.81
75617;BME280;64200;55.426;37.758;2022-12-08T01:22:49;99824.72;;;-9.53;70.41
75617;BME280;64200;55.426;37.758;2022-12-08T01:27:51;99796.19;;;-9.63;69.92
75617;BME280;64200;55.426;37.758;2022-12-08T01:32:52;99822.56;;;-9.39;69.88
75617;BME280;64200;55.426;37.758;2022-12-08T01:37:52;99821.78;;;-9.39;69.81
75617;BME280;64200;55.426;37.758;2022-12-08T01:42:53;99798.50;;;-9.52;70.37
75617;BME280;64200;55.426;37.758;2022-12-08T01:47:57;99816.75;;;-9.49;69.72
75617;BME280;64200;55.426;37.758;2022-12-08T01:53:08;99816.09;;;-9.46;70.24
75617;BME280;64200;55.426;37.758;2022-12-08T01:58:23;99810.28;;;-9.57;70.49
75617;BME280;64200;55.426;37.758;2022-12-08T02:03:30;99796.78;;;-9.57;69.75
75617;BME280;64200;55.426;37.758;2022-12-08T02:08:32;99804.56;;;-9.56;70.52
75617;BME280;64200;55.426;37.758;2022-12-08T02:13:34;99807.66;;;-9.66;69.75
75617;BME280;64200;55.426;37.758;2022-12-08T02:34:28;99810.91;;;-9.51;69.79
75617;BME280;64200;55.426;37.758;2022-12-08T02:39:36;99806.66;;;-9.61;70.13
75617;BME280;64200;55.426;37.758;2022-12-08T02:44:47;99775.19;;;-9.57;70.43
75617;BME280;64200;55.426;37.758;2022-12-08T02:49:54;99776.31;;;-9.58;70.63
75617;BME280;64200;55.426;37.758;2022-12-08T02:55:06;99771.84;;;-9.54;69.84
75617;BME280;64200;55.426;37.758;2022-12-08T03:15:55;99763.34;;;-9.65;70.29
75617;BME280;64200;55.426;37.758;2022-12-08T03:20:55;99746.81;;;-9.63;71.13
75617;BME280;64200;55.426;37.758;2022-12-08T03:26:22;99762.34;;;-9.60;70.82
75617;BME280;64200;55.426;37.758;2022-12-08T03:31:26;99731.06;;;-9.61;70.35
75617;BME280;64200;55.426;37.758;2022-12-08T03:36:28;99733.97;;;-9.66;71.29
75617;BME280;64200;55.426;37.758;2022-12-08T03:41:29;99738.56;;;-9.67;71.27
75617;BME280;64200;55.426;37.758;2022-12-08T03:46:30;99745.94;;;-9.55;70.40
75617;BME280;64200;55.426;37.758;2022-12-08T03:51:30;99723.94;;;-9.66;71.15
75617;BME280;64200;55.426;37.758;2022-12-08T03:56:36;99713.34;;;-9.71;70.68
75617;BME280;64200;55.426;37.758;2022-12-08T04:01:37;99738.38;;;-9.62;71.43
75617;BME280;64200;55.426;37.758;2022-12-08T04:06:37;99721.31;;;-9.75;72.67
75617;BME280;64200;55.426;37.758;2022-12-08T04:11:38;99715.47;;;-9.77;72.42
75617;BME280;64200;55.426;37.758;2022-12-08T04:16:39;99713.66;;;-9.73;72.35
75617;BME280;64200;55.426;37.758;2022-12-08T04:21:39;99717.63;;;-9.70;72.94
75617;BME280;64200;55.426;37.758;2022-12-08T04:26:40;99705.16;;;-9.83;72.68
75617;BME280;64200;55.426;37.758;2022-12-08T04:31:40;99715.06;;;-9.66;73.47
75617;BME280;64200;55.426;37.758;2022-12-08T04:36:41;99693.81;;;-9.68;72.39
75617;BME280;64200;55.426;37.758;2022-12-08T04:41:41;99708.81;;;-9.79;73.50
75617;BME280;64200;55.426;37.758;2022-12-08T04:46:42;99701.78;;;-10.01;75.69
75617;BME280;64200;55.426;37.758;2022-12-08T04:51:42;99715.69;;;-9.91;75.16
75617;BME280;64200;55.426;37.758;2022-12-08T04:56:43;99712.94;;;-9.82;75.43
75617;BME280;64200;55.426;37.758;2022-12-08T05:01:43;99710.16;;;-9.94;75.94
75617;BME280;64200;55.426;37.758;2022-12-08T05:06:44;99696.78;;;-9.91;75.80
75617;BME280;64200;55.426;37.758;2022-12-08T05:11:44;99727.94;;;-9.93;75.35
75617;BME280;64200;55.426;37.758;2022-12-08T05:16:46;99697.28;;;-9.89;75.42
75617;BME280;64200;55.426;37.758;2022-12-08T05:21:46;99694.38;;;-9.83;75.62
75617;BME280;64200;55.426;37.758;2022-12-08T05:26:47;99692.59;;;-9.79;75.01
75617;BME280;64200;55.426;37.758;2022-12-08T05:31:47;99676.03;;;-9.90;74.44
75617;BME280;64200;55.426;37.758;2022-12-08T05:36:48;99687.47;;;-9.93;74.05
75617;BME280;64200;55.426;37.758;2022-12-08T05:41:48;99701.03;;;-9.81;73.60
75617;BME280;64200;55.426;37.758;2022-12-08T05:46:49;99715.63;;;-9.82;74.01
75617;BME280;64200;55.426;37.758;2022-12-08T05:51:49;99693.25;;;-9.82;73.77
75617;BME280;64200;55.426;37.758;2022-12-08T05:56:50;99705.13;;;-9.75;73.90
75617;BME280;64200;55.426;37.758;2022-12-08T06:01:50;99695.84;;;-9.65;72.90
75617;BME280;64200;55.426;37.758;2022-12-08T06:06:51;99708.03;;;-9.80;74.30
75617;BME280;64200;55.426;37.758;2022-12-08T06:11:52;99713.03;;;-9.69;73.84
75617;BME280;64200;55.426;37.758;2022-12-08T06:16:52;99692.22;;;-9.69;74.47
75617;BME280;64200;55.426;37.758;2022-12-08T06:21:53;99700.00;;;-9.67;74.96
75617;BME280;64200;55.426;37.758;2022-12-08T06:26:53;99683.41;;;-9.78;74.63
75617;BME280;64200;55.426;37.758;2022-12-08T06:31:54;99719.28;;;-9.78;75.46
75617;BME280;64200;55.426;37.758;2022-12-08T06:36:54;99685.91;;;-9.73;75.15
75617;BME280;64200;55.426;37.758;2022-12-08T06:41:55;99686.44;;;-9.59;74.54
75617;BME280;64200;55.426;37.758;2022-12-08T06:47:14;99679.50;;;-9.68;73.90
75617;BME280;64200;55.426;37.758;2022-12-08T06:52:15;99690.38;;;-9.56;74.10
75617;BME280;64200;55.426;37.758;2022-12-08T06:57:15;99698.50;;;-9.56;72.51
75617;BME280;64200;55.426;37.758;2022-12-08T07:02:17;99727.38;;;-9.57;72.10
75617;BME280;64200;55.426;37.758;2022-12-08T07:07:18;99705.78;;;-9.57;71.98
75617;BME280;64200;55.426;37.758;2022-12-08T07:12:19;99672.53;;;-9.48;71.67
75617;BME280;64200;55.426;37.758;2022-12-08T07:17:19;99684.81;;;-9.39;71.64
75617;BME280;64200;55.426;37.758;2022-12-08T07:22:20;99691.97;;;-9.34;70.68
75617;BME280;64200;55.426;37.758;2022-12-08T07:27:20;99692.78;;;-9.21;71.12
75617;BME280;64200;55.426;37.758;2022-12-08T07:32:21;99713.06;;;-9.15;70.64
75617;BME280;64200;55.426;37.758;2022-12-08T07:37:21;99708.50;;;-9.02;70.27
75617;BME280;64200;55.426;37.758;2022-12-08T07:42:22;99690.25;;;-9.05;69.76
75617;BME280;64200;55.426;37.758;2022-12-08T07:47:23;99701.44;;;-8.94;70.02
75617;BME280;64200;55.426;37.758;2022-12-08T07:52:23;99687.63;;;-8.80;69.74
75617;BME280;64200;55.426;37.758;2022-12-08T07:57:24;99679.44;;;-8.72;70.26
75617;BME280;64200;55.426;37.758;2022-12-08T08:02:24;99678.19;;;-8.74;69.24
75617;BME280;64200;55.426;37.758;2022-12-08T08:07:25;99671.53;;;-8.65;69.39
75617;BME280;64200;55.426;37.758;2022-12-08T08:12:25;99708.75;;;-8.61;69.56
75617;BME280;64200;55.426;37.758;2022-12-08T08:17:27;99698.84;;;-8.45;69.03
75617;BME280;64200;55.426;37.758;2022-12-08T08:22:27;99624.06;;;-8.87;68.70
75617;BME280;64200;55.426;37.758;2022-12-08T08:27:28;99674.56;;;-8.41;68.19
75617;BME280;64200;55.426;37.758;2022-12-08T08:32:32;99673.00;;;-8.55;68.38
75617;BME280;64200;55.426;37.758;2022-12-08T08:37:33;99659.50;;;-8.55;69.49
75617;BME280;64200;55.426;37.758;2022-12-08T08:42:33;99659.38;;;-8.58;69.15
75617;BME280;64200;55.426;37.758;2022-12-08T08:47:34;99650.47;;;-8.59;68.86
75617;BME280;64200;55.426;37.758;2022-12-08T08:52:34;99663.56;;;-8.61;69.95
75617;BME280;64200;55.426;37.758;2022-12-08T08:57:35;99650.13;;;-8.33;69.37
75617;BME280;64200;55.426;37.758;2022-12-08T09:02:36;99663.75;;;-8.29;68.45
75617;BME280;64200;55.426;37.758;2022-12-08T09:07:37;99674.34;;;-8.24;69.00
75617;BME280;64200;55.426;37.758;2022-12-08T09:12:38;99643.59;;;-8.32;68.95
75617;BME280;64200;55.426;37.758;2022-12-08T09:17:38;99646.72;;;-8.30;68.46
75617;BME280;64200;55.426;37.758;2022-12-08T09:22:39;99630.84;;;-8.43;69.83
75617;BME280;64200;55.426;37.758;2022-12-08T09:27:40;99642.66;;;-8.23;69.35
75617;BME280;64200;55.426;37.758;2022-12-08T09:32:40;99665.88;;;-7.98;68.80
75617;BME280;64200;55.426;37.758;2022-12-08T09:37:41;99666.22;;;-7.99;68.01
75617;BME280;64200;55.426;37.758;2022-12-08T09:48:03;99634.28;;;-7.94;68.22
75617;BME280;64200;55.426;37.758;2022-12-08T09:53:12;99621.22;;;-7.91;68.62
75617;BME280;64200;55.426;37.758;2022-12-08T10:03:23;99641.19;;;-7.96;69.05
75617;BME280;64200;55.426;37.758;2022-12-08T10:08:29;99650.34;;;-8.01;69.74
75617;BME280;64200;55.426;37.758;2022-12-08T10:13:48;99635.66;;;-8.00;69.58
75617;BME280;64200;55.426;37.758;2022-12-08T10:18:59;99619.06;;;-7.98;69.47
75617;BME280;64200;55.426;37.758;2022-12-08T10:24:08;99616.13;;;-7.93;70.04
75617;BME280;64200;55.426;37.758;2022-12-08T10:29:12;99632.72;;;-7.95;70.57
75617;BME280;64200;55.426;37.758;2022-12-08T10:34:17;99635.28;;;-7.86;70.03
75617;BME280;64200;55.426;37.758;2022-12-08T10:39:39;99626.56;;;-7.79;69.89
75617;BME280;64200;55.426;37.758;2022-12-08T10:50:19;99643.38;;;-7.73;70.89
75617;BME280;64200;55.426;37.758;2022-12-08T10:55:20;99648.03;;;-7.74;71.21
75617;BME280;64200;55.426;37.758;2022-12-08T11:00:24;99654.25;;;-7.86;71.24
75617;BME280;64200;55.426;37.758;2022-12-08T11:05:34;99660.41;;;-7.73;71.58
75617;BME280;64200;55.426;37.758;2022-12-08T11:10:42;99642.25;;;-7.72;70.23
75617;BME280;64200;55.426;37.758;2022-12-08T11:15:44;99630.81;;;-7.66;70.68
75617;BME280;64200;55.426;37.758;2022-12-08T11:20:45;99627.53;;;-7.59;70.02
75617;BME280;64200;55.426;37.758;2022-12-08T11:25:47;99611.44;;;-7.68;70.71
75617;BME280;64200;55.426;37.758;2022-12-08T11:30:59;99620.97;;;-7.58;71.33
75617;BME280;64200;55.426;37.758;2022-12-08T11:36:09;99598.47;;;-7.74;72.49
75617;BME280;64200;55.426;37.758;2022-12-08T11:41:17;99611.78;;;-7.69;71.74
75617;BME280;64200;55.426;37.758;2022-12-08T11:46:20;99621.47;;;-7.68;71.57
75617;BME280;64200;55.426;37.758;2022-12-08T11:56:52;99633.75;;;-7.59;71.53
75617;BME280;64200;55.426;37.758;2022-12-08T12:01:54;99594.72;;;-7.70;71.39
75617;BME280;64200;55.426;37.758;2022-12-08T12:23:35;99615.56;;;-7.58;71.56
75617;BME280;64200;55.426;37.758;2022-12-08T12:28:50;99640.75;;;-7.57;71.64
75617;BME280;64200;55.426;37.758;2022-12-08T12:33:56;99645.22;;;-7.49;71.49
75617;BME280;64200;55.426;37.758;2022-12-08T12:39:02;99662.28;;;-7.49;71.70
75617;BME280;64200;55.426;37.758;2022-12-08T12:55:17;99669.38;;;-7.44;71.55
75617;BME280;64200;55.426;37.758;2022-12-08T13:00:17;99648.47;;;-7.44;71.88
75617;BME280;64200;55.426;37.758;2022-12-08T13:05:25;99665.19;;;-7.42;72.04
75617;BME280;64200;55.426;37.758;2022-12-08T13:10:32;99676.25;;;-7.47;72.17
75617;BME280;64200;55.426;37.758;2022-12-08T13:15:52;99661.31;;;-7.41;72.48
75617;BME280;64200;55.426;37.758;2022-12-08T13:26:24;99665.34;;;-7.50;73.23
75617;BME280;64200;55.426;37.758;2022-12-08T13:31:53;99670.09;;;-7.31;73.17
75617;BME280;64200;55.426;37.758;2022-12-08T13:42:18;99658.25;;;-7.27;72.47
75617;BME280;64200;55.426;37.758;2022-12-08T13:47:34;99649.09;;;-7.34;72.87
75617;BME280;64200;55.426;37.758;2022-12-08T13:52:52;99652.28;;;-7.32;73.03
75617;BME280;64200;55.426;37.758;2022-12-08T13:57:55;99641.63;;;-7.25;72.32
75617;BME280;64200;55.426;37.758;2022-12-08T14:02:58;99645.91;;;-7.24;72.15
75617;BME280;64200;55.426;37.758;2022-12-08T14:08:00;99654.84;;;-7.24;72.49
75617;BME280;64200;55.426;37.758;2022-12-08T14:13:03;99676.25;;;-7.18;72.00
75617;BME280;64200;55.426;37.758;2022-12-08T14:18:18;99676.06;;;-7.26;72.72
75617;BME280;64200;55.426;37.758;2022-12-08T14:23:20;99655.19;;;-7.25;72.11
75617;BME280;64200;55.426;37.758;2022-12-08T14:28:21;99655.38;;;-7.18;72.36
75617;BME280;64200;55.426;37.758;2022-12-08T14:33:22;99655.38;;;-7.18;72.43
75617;BME280;64200;55.426;37.758;2022-12-08T14:38:24;99660.47;;;-7.16;71.85
75617;BME280;64200;55.426;37.758;2022-12-08T14:43:27;99674.03;;;-7.00;72.00
75617;BME280;64200;55.426;37.758;2022-12-08T14:53:43;99693.81;;;-7.00;72.39
75617;BME280;64200;55.426;37.758;2022-12-08T14:58:46;99685.41;;;-6.95;71.75
75617;BME280;64200;55.426;37.758;2022-12-08T15:03:48;99695.69;;;-6.88;72.19
75617;BME280;64200;55.426;37.758;2022-12-08T15:08:57;99693.59;;;-6.79;71.44
75617;BME280;64200;55.426;37.758;2022-12-08T15:13:59;99692.31;;;-6.69;71.70
75617;BME280;64200;55.426;37.758;2022-12-08T15:24:02;99708.13;;;-6.71;71.80
75617;BME280;64200;55.426;37.758;2022-12-08T15:29:18;99714.50;;;-6.63;71.53
75617;BME280;64200;55.426;37.758;2022-12-08T15:34:20;99717.91;;;-6.66;71.74
75617;BME280;64200;55.426;37.758;2022-12-08T15:39:32;99709.94;;;-6.75;71.77
75617;BME280;64200;55.426;37.758;2022-12-08T15:44:34;99721.53;;;-6.62;71.84
75617;BME280;64200;55.426;37.758;2022-12-08T15:49:34;99715.81;;;-6.73;72.36
75617;BME280;64200;55.426;37.758;2022-12-08T15:54:35;99736.84;;;-6.54;71.95
75617;BME280;64200;55.426;37.758;2022-12-08T15:59:36;99727.41;;;-6.44;71.55
75617;BME280;64200;55.426;37.758;2022-12-08T16:04:38;99735.88;;;-6.46;72.17
75617;BME280;64200;55.426;37.758;2022-12-08T16:09:39;99737.19;;;-6.40;71.53
75617;BME280;64200;55.426;37.758;2022-12-08T16:14:40;99738.78;;;-6.39;71.82
75617;BME280;64200;55.426;37.758;2022-12-08T16:19:43;99730.22;;;-6.41;71.99
75617;BME280;64200;55.426;37.758;2022-12-08T16:24:44;99733.63;;;-6.28;71.88
75617;BME280;64200;55.426;37.758;2022-12-08T16:29:45;99733.28;;;-6.26;71.46
75617;BME280;64200;55.426;37.758;2022-12-08T16:34:48;99730.72;;;-6.35;71.68
75617;BME280;64200;55.426;37.758;2022-12-08T16:39:50;99739.06;;;-6.28;72.11
75617;BME280;64200;55.426;37.758;2022-12-08T16:44:51;99748.06;;;-6.24;71.80
75617;BME280;64200;55.426;37.758;2022-12-08T16:49:52;99721.28;;;-6.41;72.36
75617;BME280;64200;55.426;37.758;2022-12-08T16:54:52;99733.81;;;-6.21;72.45
75617;BME280;64200;55.426;37.758;2022-12-08T16:59:53;99736.63;;;-6.17;72.38
75617;BME280;64200;55.426;37.758;2022-12-08T17:04:53;99737.31;;;-6.20;72.22
75617;BME280;64200;55.426;37.758;2022-12-08T17:09:54;99729.06;;;-6.24;72.16
75617;BME280;64200;55.426;37.758;2022-12-08T17:14:55;99727.50;;;-6.25;72.13
75617;BME280;64200;55.426;37.758;2022-12-08T17:19:55;99720.75;;;-6.31;72.76
75617;BME280;64200;55.426;37.758;2022-12-08T17:24:56;99732.91;;;-6.25;73.01
75617;BME280;64200;55.426;37.758;2022-12-08T17:29:57;99709.22;;;-6.44;73.77
75617;BME280;64200;55.426;37.758;2022-12-08T17:34:57;99743.09;;;-6.22;73.64
75617;BME280;64200;55.426;37.758;2022-12-08T17:39:58;99728.81;;;-6.34;73.92
75617;BME280;64200;55.426;37.758;2022-12-08T17:44:58;99748.44;;;-6.25;73.75
75617;BME280;64200;55.426;37.758;2022-12-08T17:49:59;99743.88;;;-6.21;74.76
75617;BME280;64200;55.426;37.758;2022-12-08T17:55:00;99761.56;;;-6.11;74.44
75617;BME280;64200;55.426;37.758;2022-12-08T18:00:00;99757.63;;;-5.98;73.98
75617;BME280;64200;55.426;37.758;2022-12-08T18:05:01;99749.38;;;-6.02;74.36
75617;BME280;64200;55.426;37.758;2022-12-08T18:10:02;99754.91;;;-5.98;74.23
75617;BME280;64200;55.426;37.758;2022-12-08T18:15:05;99766.06;;;-5.84;73.73
75617;BME280;64200;55.426;37.758;2022-12-08T18:20:07;99767.59;;;-5.86;74.15
75617;BME280;64200;55.426;37.758;2022-12-08T18:25:09;99763.00;;;-5.82;74.05
75617;BME280;64200;55.426;37.758;2022-12-08T18:30:14;99781.13;;;-5.70;73.78
75617;BME280;64200;55.426;37.758;2022-12-08T18:35:15;99772.81;;;-5.77;74.36
75617;BME280;64200;55.426;37.758;2022-12-08T18:40:17;99767.13;;;-5.72;74.20
75617;BME280;64200;55.426;37.758;2022-12-08T18:45:17;99768.53;;;-5.62;74.75
75617;BME280;64200;55.426;37.758;2022-12-08T18:50:21;99766.59;;;-5.62;74.36
75617;BME280;64200;55.426;37.758;2022-12-08T18:55:21;99773.69;;;-5.73;74.96
75617;BME280;64200;55.426;37.758;2022-12-08T19:00:23;99774.28;;;-5.64;74.82
75617;BME280;64200;55.426;37.758;2022-12-08T19:05:24;99765.88;;;-5.75;75.31
75617;BME280;64200;55.426;37.758;2022-12-08T19:10:24;99782.53;;;-5.76;75.12
75617;BME280;64200;55.426;37.758;2022-12-08T19:15:25;99780.19;;;-5.78;75.66
75617;BME280;64200;55.426;37.758;2022-12-08T19:20:26;99779.13;;;-5.73;76.02
75617;BME280;64200;55.426;37.758;2022-12-08T19:25:27;99790.28;;;-5.78;76.37
75617;BME280;64200;55.426;37.758;2022-12-08T19:30:27;99792.00;;;-5.70;75.96
75617;BME280;64200;55.426;37.758;2022-12-08T19:35:29;99779.84;;;-5.76;76.36
75617;BME280;64200;55.426;37.758;2022-12-08T19:40:30;99794.13;;;-5.63;76.06
75617;BME280;64200;55.426;37.758;2022-12-08T19:45:49;99774.16;;;-5.71;76.22
75617;BME280;64200;55.426;37.758;2022-12-08T19:50:49;99789.47;;;-5.63;76.04
75617;BME280;64200;55.426;37.758;2022-12-08T19:55:50;99791.47;;;-5.60;76.54
75617;BME280;64200;55.426;37.758;2022-12-08T20:00:51;99811.25;;;-5.43;75.89
75617;BME280;64200;55.426;37.758;2022-12-08T20:05:52;99790.22;;;-5.47;76.31
75617;BME280;64200;55.426;37.758;2022-12-08T20:10:52;99788.66;;;-5.48;76.07
75617;BME280;64200;55.426;37.758;2022-12-08T20:15:55;99788.38;;;-5.42;75.83
75617;BME280;64200;55.426;37.758;2022-12-08T20:20:56;99801.13;;;-5.62;76.82
75617;BME280;64200;55.426;37.758;2022-12-08T20:25:57;99802.63;;;-5.65;77.09
75617;BME280;64200;55.426;37.758;2022-12-08T20:30:58;99790.34;;;-5.75;77.61
75617;BME280;64200;55.426;37.758;2022-12-08T20:40:59;99809.59;;;-5.48;77.24
75617;BME280;64200;55.426;37.758;2022-12-08T20:46:05;99787.06;;;-5.49;77.28
75617;BME280;64200;55.426;37.758;2022-12-08T20:51:05;99793.63;;;-5.50;77.12
75617;BME280;64200;55.426;37.758;2022-12-08T20:56:06;99789.38;;;-5.67;78.08
75617;BME280;64200;55.426;37.758;2022-12-08T21:01:07;99797.44;;;-5.70;78.32
75617;BME280;64200;55.426;37.758;2022-12-08T21:06:08;99799.97;;;-5.61;78.18
75617;BME280;64200;55.426;37.758;2022-12-08T21:11:09;99785.16;;;-5.64;78.25
75617;BME280;64200;55.426;37.758;2022-12-08T21:16:13;99800.44;;;-5.75;79.35
75617;BME280;64200;55.426;37.758;2022-12-08T21:21:14;99799.91;;;-5.65;78.67
75617;BME280;64200;55.426;37.758;2022-12-08T21:26:19;99795.75;;;-5.59;78.43
75617;BME280;64200;55.426;37.758;2022-12-08T21:31:20;99777.88;;;-5.60;78.01
75617;BME280;64200;55.426;37.758;2022-12-08T21:36:21;99796.34;;;-5.50;78.04
75617;BME280;64200;55.426;37.758;2022-12-08T21:41:22;99780.88;;;-5.65;78.79
75617;BME280;64200;55.426;37.758;2022-12-08T21:46:42;99785.59;;;-5.62;78.70
75617;BME280;64200;55.426;37.758;2022-12-08T21:51:42;99795.69;;;-5.62;78.90
75617;BME280;64200;55.426;37.758;2022-12-08T21:56:44;99779.47;;;-5.59;79.27
75617;BME280;64200;55.426;37.758;2022-12-08T22:01:44;99785.09;;;-5.68;79.54
75617;BME280;64200;55.426;37.758;2022-12-08T22:06:45;99788.38;;;-5.58;79.47
75617;BME280;64200;55.426;37.758;2022-12-08T22:11:45;99790.31;;;-5.43;78.87
75617;BME280;64200;55.426;37.758;2022-12-08T22:16:46;99791.31;;;-5.32;78.49
75617;BME280;64200;55.426;37.758;2022-12-08T22:21:46;99797.66;;;-5.43;78.82
75617;BME280;64200;55.426;37.758;2022-12-08T22:26:47;99799.25;;;-5.42;78.62
75617;BME280;64200;55.426;37.758;2022-12-08T22:31:47;99819.56;;;-5.36;78.16
75617;BME280;64200;55.426;37.758;2022-12-08T22:36:48;99821.94;;;-5.35;78.10
75617;BME280;64200;55.426;37.758;2022-12-08T22:41:49;99816.44;;;-5.38;78.27
75617;BME280;64200;55.426;37.758;2022-12-08T22:46:49;99822.19;;;-5.24;78.09
75617;BME280;64200;55.426;37.758;2022-12-08T22:51:50;99813.75;;;-5.19;77.92
75617;BME280;64200;55.426;37.758;2022-12-08T22:56:50;99813.03;;;-5.16;77.65
75617;BME280;64200;55.426;37.758;2022-12-08T23:01:51;99825.50;;;-5.15;77.00
75617;BME280;64200;55.426;37.758;2022-12-08T23:06:53;99823.03;;;-5.20;77.12
75617;BME280;64200;55.426;37.758;2022-12-08T23:11:53;99823.56;;;-5.14;77.35
75617;BME280;64200;55.426;37.758;2022-12-08T23:16:54;99823.28;;;-5.09;77.14
75617;BME280;64200;55.426;37.758;2022-12-08T23:21:55;99825.91;;;-5.13;76.23
75617;BME280;64200;55.426;37.758;2022-12-08T23:26:55;99821.50;;;-5.01;77.25
75617;BME280;64200;55.426;37.758;2022-12-08T23:31:56;99824.38;;;-4.94;76.66
75617;BME280;64200;55.426;37.758;2022-12-08T23:36:56;99821.31;;;-4.92;76.74
75617;BME280;64200;55.426;37.758;2022-12-08T23:41:57;99820.78;;;-4.98;76.79
75617;BME280;64200;55.426;37.758;2022-12-08T23:46:57;99829.25;;;-4.84;76.75
75617;BME280;64200;55.426;37.758;2022-12-08T23:51:58;99833.88;;;-4.84;76.59
75617;BME280;64200;55.426;37.758;2022-12-08T23:56:58;99831.97;;;-4.84;76.63
